sensor_id;sensor_type;location;lat;lon;timestamp;temperature;humidity
16976;DHT22;8604;48.148;-1.786;2023-08-21T00:00:03;18.60;99.90
16976;DHT22;8604;48.148;-1.786;2023-08-21T00:02:32;18.60;99.90
16976;DHT22;8604;48.148;-1.786;2023-08-21T00:05:00;18.60;99.90
16976;DHT22;8604;48.148;-1.786;2023-08-21T00:07:29;18.50;99.90
16976;DHT22;8604;48.148;-1.786;2023-08-21T00:09:58;18.50;99.90
16976;DHT22;8604;48.148;-1.786;2023-08-21T00:12:27;18.50;99.90
16976;DHT22;8604;48.148;-1.786;2023-08-21T00:14:55;18.40;99.90
16976;DHT22;8604;48.148;-1.786;2023-08-21T00:17:24;18.40;99.90
16976;DHT22;8604;48.148;-1.786;2023-08-21T00:19:52;18.40;99.90
16976;DHT22;8604;48.148;-1.786;2023-08-21T00:22:20;18.30;99.90
16976;DHT22;8604;48.148;-1.786;2023-08-21T00:24:48;18.30;99.90
16976;DHT22;8604;48.148;-1.786;2023-08-21T00:27:18;18.30;99.90
16976;DHT22;8604;48.148;-1.786;2023-08-21T00:29:46;18.20;99.90
16976;DHT22;8604;48.148;-1.786;2023-08-21T00:32:15;18.20;99.90
16976;DHT22;8604;48.148;-1.786;2023-08-21T00:34:43;18.20;99.90
16976;DHT22;8604;48.148;-1.786;2023-08-21T00:37:12;18.20;99.90
16976;DHT22;8604;48.148;-1.786;2023-08-21T00:39:40;18.20;99.90
16976;DHT22;8604;48.148;-1.786;2023-08-21T00:42:09;18.20;99.90
16976;DHT22;8604;48.148;-1.786;2023-08-21T00:44:38;18.20;99.90
16976;DHT22;8604;48.148;-1.786;2023-08-21T00:47:07;18.10;99.90
16976;DHT22;8604;48.148;-1.786;2023-08-21T00:49:35;18.10;99.90
16976;DHT22;8604;48.148;-1.786;2023-08-21T00:52:07;18.00;99.90
16976;DHT22;8604;48.148;-1.786;2023-08-21T00:54:36;18.00;99.90
16976;DHT22;8604;48.148;-1.786;2023-08-21T00:57:05;18.00;99.90
16976;DHT22;8604;48.148;-1.786;2023-08-21T00:59:35;18.00;99.90
16976;DHT22;8604;48.148;-1.786;2023-08-21T01:02:05;18.00;99.90
16976;DHT22;8604;48.148;-1.786;2023-08-21T01:04:34;18.00;99.90
16976;DHT22;8604;48.148;-1.786;2023-08-21T01:07:02;18.00;99.90
16976;DHT22;8604;48.148;-1.786;2023-08-21T01:09:41;18.00;99.90
16976;DHT22;8604;48.148;-1.786;2023-08-21T01:12:16;18.00;99.90
16976;DHT22;8604;48.148;-1.786;2023-08-21T01:14:53;18.00;99.90
16976;DHT22;8604;48.148;-1.786;2023-08-21T01:17:25;17.90;99.90
16976;DHT22;8604;48.148;-1.786;2023-08-21T01:19:54;18.00;99.90
16976;DHT22;8604;48.148;-1.786;2023-08-21T01:22:26;18.00;99.90
16976;DHT22;8604;48.148;-1.786;2023-08-21T01:24:55;17.90;99.90
16976;DHT22;8604;48.148;-1.786;2023-08-21T01:27:24;17.90;99.90
16976;DHT22;8604;48.148;-1.786;2023-08-21T01:29:53;17.90;99.90
16976;DHT22;8604;48.148;-1.786;2023-08-21T01:32:29;17.90;99.90
16976;DHT22;8604;48.148;-1.786;2023-08-21T01:35:01;17.90;99.90
16976;DHT22;8604;48.148;-1.786;2023-08-21T01:37:31;17.90;99.90
16976;DHT22;8604;48.148;-1.786;2023-08-21T01:40:00;17.80;99.90
16976;DHT22;8604;48.148;-1.786;2023-08-21T01:42:29;17.90;99.90
16976;DHT22;8604;48.148;-1.786;2023-08-21T01:44:57;17.90;99.90
16976;DHT22;8604;48.148;-1.786;2023-08-21T01:47:28;17.90;99.90
16976;DHT22;8604;48.148;-1.786;2023-08-21T01:49:56;17.90;99.90
16976;DHT22;8604;48.148;-1.786;2023-08-21T01:52:24;17.90;99.90
16976;DHT22;8604;48.148;-1.786;2023-08-21T01:54:53;17.90;99.90
16976;DHT22;8604;48.148;-1.786;2023-08-21T01:57:22;17.90;99.90
16976;DHT22;8604;48.148;-1.786;2023-08-21T01:59:51;17.90;99.90
16976;DHT22;8604;48.148;-1.786;2023-08-21T02:02:19;17.90;99.90
16976;DHT22;8604;48.148;-1.786;2023-08-21T02:04:47;17.90;99.90
16976;DHT22;8604;48.148;-1.786;2023-08-21T02:07:16;17.80;99.90
16976;DHT22;8604;48.148;-1.786;2023-08-21T02:09:44;17.80;99.90
16976;DHT22;8604;48.148;-1.786;2023-08-21T02:12:13;17.80;99.90
16976;DHT22;8604;48.148;-1.786;2023-08-21T02:14:43;17.80;99.90
16976;DHT22;8604;48.148;-1.786;2023-08-21T02:17:11;17.80;99.90
16976;DHT22;8604;48.148;-1.786;2023-08-21T02:19:39;17.70;99.90
16976;DHT22;8604;48.148;-1.786;2023-08-21T02:22:08;17.70;99.90
16976;DHT22;8604;48.148;-1.786;2023-08-21T02:24:36;17.70;99.90
16976;DHT22;8604;48.148;-1.786;2023-08-21T02:27:05;17.70;99.90
16976;DHT22;8604;48.148;-1.786;2023-08-21T02:29:33;17.70;99.90
16976;DHT22;8604;48.148;-1.786;2023-08-21T02:32:04;17.70;99.90
16976;DHT22;8604;48.148;-1.786;2023-08-21T02:34:32;17.70;99.90
16976;DHT22;8604;48.148;-1.786;2023-08-21T02:37:01;17.70;99.90
16976;DHT22;8604;48.148;-1.786;2023-08-21T02:39:30;17.70;99.90
16976;DHT22;8604;48.148;-1.786;2023-08-21T02:41:58;17.70;99.90
16976;DHT22;8604;48.148;-1.786;2023-08-21T02:44:26;17.70;99.90
16976;DHT22;8604;48.148;-1.786;2023-08-21T02:46:55;17.70;99.90
16976;DHT22;8604;48.148;-1.786;2023-08-21T02:49:24;17.70;99.90
16976;DHT22;8604;48.148;-1.786;2023-08-21T02:51:53;17.70;99.90
16976;DHT22;8604;48.148;-1.786;2023-08-21T02:54:21;17.70;99.90
16976;DHT22;8604;48.148;-1.786;2023-08-21T02:56:49;17.70;99.90
16976;DHT22;8604;48.148;-1.786;2023-08-21T02:59:18;17.70;99.90
16976;DHT22;8604;48.148;-1.786;2023-08-21T03:01:46;17.70;99.90
16976;DHT22;8604;48.148;-1.786;2023-08-21T03:04:15;17.70;99.90
16976;DHT22;8604;48.148;-1.786;2023-08-21T03:06:44;17.70;99.90
16976;DHT22;8604;48.148;-1.786;2023-08-21T03:09:13;17.60;99.90
16976;DHT22;8604;48.148;-1.786;2023-08-21T03:11:41;17.60;99.90
16976;DHT22;8604;48.148;-1.786;2023-08-21T03:14:09;17.60;99.90
16976;DHT22;8604;48.148;-1.786;2023-08-21T03:16:38;17.60;99.90
16976;DHT22;8604;48.148;-1.786;2023-08-21T03:19:06;17.60;99.90
16976;DHT22;8604;48.148;-1.786;2023-08-21T03:21:35;17.60;99.90
16976;DHT22;8604;48.148;-1.786;2023-08-21T03:24:06;17.60;99.90
16976;DHT22;8604;48.148;-1.786;2023-08-21T03:26:35;17.60;99.90
16976;DHT22;8604;48.148;-1.786;2023-08-21T03:29:03;17.50;99.90
16976;DHT22;8604;48.148;-1.786;2023-08-21T03:31:31;17.60;99.90
16976;DHT22;8604;48.148;-1.786;2023-08-21T03:34:00;17.60;99.90
16976;DHT22;8604;48.148;-1.786;2023-08-21T03:36:29;17.60;99.90
16976;DHT22;8604;48.148;-1.786;2023-08-21T03:39:01;17.60;99.90
16976;DHT22;8604;48.148;-1.786;2023-08-21T03:41:34;17.60;99.90
16976;DHT22;8604;48.148;-1.786;2023-08-21T03:44:03;17.60;99.90
16976;DHT22;8604;48.148;-1.786;2023-08-21T03:46:31;17.60;99.90
16976;DHT22;8604;48.148;-1.786;2023-08-21T03:49:00;17.60;99.90
16976;DHT22;8604;48.148;-1.786;2023-08-21T03:51:28;17.50;99.90
16976;DHT22;8604;48.148;-1.786;2023-08-21T03:53:56;17.60;99.90
16976;DHT22;8604;48.148;-1.786;2023-08-21T03:56:25;17.50;99.90
16976;DHT22;8604;48.148;-1.786;2023-08-21T03:58:55;17.50;99.90
16976;DHT22;8604;48.148;-1.786;2023-08-21T04:01:42;17.60;99.90
16976;DHT22;8604;48.148;-1.786;2023-08-21T04:04:11;17.60;99.90
16976;DHT22;8604;48.148;-1.786;2023-08-21T04:06:39;17.60;99.90
16976;DHT22;8604;48.148;-1.786;2023-08-21T04:09:07;17.50;99.90
16976;DHT22;8604;48.148;-1.786;2023-08-21T04:11:35;17.50;99.90
16976;DHT22;8604;48.148;-1.786;2023-08-21T04:14:06;17.60;99.90
16976;DHT22;8604;48.148;-1.786;2023-08-21T04:16:34;17.60;99.90
16976;DHT22;8604;48.148;-1.786;2023-08-21T04:19:03;17.60;99.90
16976;DHT22;8604;48.148;-1.786;2023-08-21T04:21:31;17.60;99.90
16976;DHT22;8604;48.148;-1.786;2023-08-21T04:24:00;17.60;99.90
16976;DHT22;8604;48.148;-1.786;2023-08-21T04:26:28;17.60;99.90
16976;DHT22;8604;48.148;-1.786;2023-08-21T04:28:57;17.60;99.90
16976;DHT22;8604;48.148;-1.786;2023-08-21T04:31:27;17.60;99.90
16976;DHT22;8604;48.148;-1.786;2023-08-21T04:33:56;17.60;99.90
16976;DHT22;8604;48.148;-1.786;2023-08-21T04:36:24;17.60;99.90
16976;DHT22;8604;48.148;-1.786;2023-08-21T04:38:52;17.60;99.90
16976;DHT22;8604;48.148;-1.786;2023-08-21T04:41:21;17.60;99.90
16976;DHT22;8604;48.148;-1.786;2023-08-21T04:43:49;17.70;99.90
16976;DHT22;8604;48.148;-1.786;2023-08-21T04:46:18;17.60;99.90
16976;DHT22;8604;48.148;-1.786;2023-08-21T04:48:49;17.60;99.90
16976;DHT22;8604;48.148;-1.786;2023-08-21T04:51:17;17.60;99.90
16976;DHT22;8604;48.148;-1.786;2023-08-21T04:53:47;17.70;99.90
16976;DHT22;8604;48.148;-1.786;2023-08-21T04:56:18;17.70;99.90
16976;DHT22;8604;48.148;-1.786;2023-08-21T04:58:47;17.70;99.90
16976;DHT22;8604;48.148;-1.786;2023-08-21T05:01:17;17.70;99.90
16976;DHT22;8604;48.148;-1.786;2023-08-21T05:03:49;17.70;99.90
16976;DHT22;8604;48.148;-1.786;2023-08-21T05:06:19;17.70;99.90
16976;DHT22;8604;48.148;-1.786;2023-08-21T05:08:47;17.70;99.90
16976;DHT22;8604;48.148;-1.786;2023-08-21T05:11:15;17.70;99.90
16976;DHT22;8604;48.148;-1.786;2023-08-21T05:13:44;17.70;99.90
16976;DHT22;8604;48.148;-1.786;2023-08-21T05:16:14;17.70;99.90
16976;DHT22;8604;48.148;-1.786;2023-08-21T05:18:42;17.70;99.90
16976;DHT22;8604;48.148;-1.786;2023-08-21T05:21:12;17.80;99.90
16976;DHT22;8604;48.148;-1.786;2023-08-21T05:23:42;17.70;99.90
16976;DHT22;8604;48.148;-1.786;2023-08-21T05:26:11;17.70;99.90
16976;DHT22;8604;48.148;-1.786;2023-08-21T05:28:39;17.70;99.90
16976;DHT22;8604;48.148;-1.786;2023-08-21T05:31:08;17.70;99.90
16976;DHT22;8604;48.148;-1.786;2023-08-21T05:33:50;17.70;99.90
16976;DHT22;8604;48.148;-1.786;2023-08-21T05:36:20;17.80;99.90
16976;DHT22;8604;48.148;-1.786;2023-08-21T05:38:49;17.80;99.90
16976;DHT22;8604;48.148;-1.786;2023-08-21T05:41:18;17.80;99.90
16976;DHT22;8604;48.148;-1.786;2023-08-21T05:43:47;17.80;99.90
16976;DHT22;8604;48.148;-1.786;2023-08-21T05:46:31;17.90;99.90
16976;DHT22;8604;48.148;-1.786;2023-08-21T05:49:40;17.90;99.90
16976;DHT22;8604;48.148;-1.786;2023-08-21T05:52:14;18.00;99.90
16976;DHT22;8604;48.148;-1.786;2023-08-21T05:55:01;18.00;99.90
16976;DHT22;8604;48.148;-1.786;2023-08-21T05:57:50;18.10;99.90
16976;DHT22;8604;48.148;-1.786;2023-08-21T06:00:26;18.10;99.90
16976;DHT22;8604;48.148;-1.786;2023-08-21T06:03:26;18.10;99.90
16976;DHT22;8604;48.148;-1.786;2023-08-21T06:06:30;18.10;99.90
16976;DHT22;8604;48.148;-1.786;2023-08-21T06:09:36;18.20;99.90
16976;DHT22;8604;48.148;-1.786;2023-08-21T06:12:20;18.20;99.90
16976;DHT22;8604;48.148;-1.786;2023-08-21T06:15:34;18.20;99.90
16976;DHT22;8604;48.148;-1.786;2023-08-21T06:18:06;18.20;99.90
16976;DHT22;8604;48.148;-1.786;2023-08-21T06:20:48;18.30;99.90
16976;DHT22;8604;48.148;-1.786;2023-08-21T06:23:35;18.40;99.90
16976;DHT22;8604;48.148;-1.786;2023-08-21T06:26:12;18.40;99.90
16976;DHT22;8604;48.148;-1.786;2023-08-21T06:28:53;18.40;99.90
16976;DHT22;8604;48.148;-1.786;2023-08-21T06:31:28;18.50;99.90
16976;DHT22;8604;48.148;-1.786;2023-08-21T06:34:26;18.50;99.90
16976;DHT22;8604;48.148;-1.786;2023-08-21T06:37:05;18.60;99.90
16976;DHT22;8604;48.148;-1.786;2023-08-21T06:40:13;18.70;99.90
16976;DHT22;8604;48.148;-1.786;2023-08-21T06:42:55;18.80;99.90
16976;DHT22;8604;48.148;-1.786;2023-08-21T06:46:03;19.00;99.90
16976;DHT22;8604;48.148;-1.786;2023-08-21T06:48:40;19.00;99.90
16976;DHT22;8604;48.148;-1.786;2023-08-21T06:51:09;19.10;99.90
16976;DHT22;8604;48.148;-1.786;2023-08-21T06:53:39;19.30;99.90
16976;DHT22;8604;48.148;-1.786;2023-08-21T06:56:07;19.30;99.90
16976;DHT22;8604;48.148;-1.786;2023-08-21T06:58:37;19.30;99.90
16976;DHT22;8604;48.148;-1.786;2023-08-21T07:01:06;19.30;99.90
16976;DHT22;8604;48.148;-1.786;2023-08-21T07:03:34;19.30;99.90
16976;DHT22;8604;48.148;-1.786;2023-08-21T07:06:03;19.40;99.90
16976;DHT22;8604;48.148;-1.786;2023-08-21T07:08:31;19.50;99.90
16976;DHT22;8604;48.148;-1.786;2023-08-21T07:11:02;19.60;99.90
16976;DHT22;8604;48.148;-1.786;2023-08-21T07:13:32;19.60;99.90
16976;DHT22;8604;48.148;-1.786;2023-08-21T07:16:02;19.80;99.90
16976;DHT22;8604;48.148;-1.786;2023-08-21T07:18:32;19.90;99.90
16976;DHT22;8604;48.148;-1.786;2023-08-21T07:21:01;20.00;99.90
16976;DHT22;8604;48.148;-1.786;2023-08-21T07:23:44;20.10;99.90
16976;DHT22;8604;48.148;-1.786;2023-08-21T07:26:13;20.20;99.90
16976;DHT22;8604;48.148;-1.786;2023-08-21T07:28:41;20.50;99.90
16976;DHT22;8604;48.148;-1.786;2023-08-21T07:31:11;20.80;99.90
16976;DHT22;8604;48.148;-1.786;2023-08-21T07:33:40;21.00;99.90
16976;DHT22;8604;48.148;-1.786;2023-08-21T07:36:08;21.30;99.90
16976;DHT22;8604;48.148;-1.786;2023-08-21T07:38:43;21.60;99.90
16976;DHT22;8604;48.148;-1.786;2023-08-21T07:41:12;22.00;99.90
16976;DHT22;8604;48.148;-1.786;2023-08-21T07:43:43;22.30;99.90
16976;DHT22;8604;48.148;-1.786;2023-08-21T07:46:13;22.60;99.90
16976;DHT22;8604;48.148;-1.786;2023-08-21T07:48:44;23.00;99.90
16976;DHT22;8604;48.148;-1.786;2023-08-21T07:51:13;23.20;99.90
16976;DHT22;8604;48.148;-1.786;2023-08-21T07:53:42;23.60;99.90
16976;DHT22;8604;48.148;-1.786;2023-08-21T07:56:10;23.90;99.90
16976;DHT22;8604;48.148;-1.786;2023-08-21T07:58:39;24.20;99.90
16976;DHT22;8604;48.148;-1.786;2023-08-21T08:01:08;24.50;99.90
16976;DHT22;8604;48.148;-1.786;2023-08-21T08:03:38;25.00;99.90
16976;DHT22;8604;48.148;-1.786;2023-08-21T08:06:07;25.50;99.90
16976;DHT22;8604;48.148;-1.786;2023-08-21T08:08:35;26.00;99.90
16976;DHT22;8604;48.148;-1.786;2023-08-21T08:11:04;26.40;99.90
16976;DHT22;8604;48.148;-1.786;2023-08-21T08:13:33;26.80;99.90
16976;DHT22;8604;48.148;-1.786;2023-08-21T08:16:01;27.00;99.90
16976;DHT22;8604;48.148;-1.786;2023-08-21T08:18:30;27.30;99.90
16976;DHT22;8604;48.148;-1.786;2023-08-21T08:21:00;27.50;99.90
16976;DHT22;8604;48.148;-1.786;2023-08-21T08:23:29;27.50;99.90
16976;DHT22;8604;48.148;-1.786;2023-08-21T08:25:57;27.50;99.90
16976;DHT22;8604;48.148;-1.786;2023-08-21T08:28:26;27.70;99.90
16976;DHT22;8604;48.148;-1.786;2023-08-21T08:30:54;28.20;99.90
16976;DHT22;8604;48.148;-1.786;2023-08-21T08:33:23;28.40;99.90
16976;DHT22;8604;48.148;-1.786;2023-08-21T08:35:51;28.80;99.90
16976;DHT22;8604;48.148;-1.786;2023-08-21T08:38:21;29.10;99.90
16976;DHT22;8604;48.148;-1.786;2023-08-21T08:40:51;29.30;99.90
16976;DHT22;8604;48.148;-1.786;2023-08-21T08:43:24;29.60;99.90
16976;DHT22;8604;48.148;-1.786;2023-08-21T08:45:54;29.90;99.90
16976;DHT22;8604;48.148;-1.786;2023-08-21T08:48:24;30.30;99.90
16976;DHT22;8604;48.148;-1.786;2023-08-21T08:50:54;30.50;99.90
16976;DHT22;8604;48.148;-1.786;2023-08-21T08:53:27;30.40;99.90
16976;DHT22;8604;48.148;-1.786;2023-08-21T08:55:57;30.60;99.90
16976;DHT22;8604;48.148;-1.786;2023-08-21T08:58:26;31.10;99.90
16976;DHT22;8604;48.148;-1.786;2023-08-21T09:00:54;31.60;99.90
16976;DHT22;8604;48.148;-1.786;2023-08-21T09:03:23;32.10;99.90
16976;DHT22;8604;48.148;-1.786;2023-08-21T09:05:52;32.20;99.90
16976;DHT22;8604;48.148;-1.786;2023-08-21T09:08:20;32.40;99.90
16976;DHT22;8604;48.148;-1.786;2023-08-21T09:10:50;32.50;99.90
16976;DHT22;8604;48.148;-1.786;2023-08-21T09:13:19;32.50;99.90
16976;DHT22;8604;48.148;-1.786;2023-08-21T09:15:53;32.80;99.90
16976;DHT22;8604;48.148;-1.786;2023-08-21T09:18:22;33.10;99.90
16976;DHT22;8604;48.148;-1.786;2023-08-21T09:20:50;33.30;99.90
16976;DHT22;8604;48.148;-1.786;2023-08-21T09:23:19;33.30;99.90
16976;DHT22;8604;48.148;-1.786;2023-08-21T09:25:50;33.40;99.90
16976;DHT22;8604;48.148;-1.786;2023-08-21T09:28:19;33.80;99.90
16976;DHT22;8604;48.148;-1.786;2023-08-21T09:30:50;34.30;99.90
16976;DHT22;8604;48.148;-1.786;2023-08-21T09:33:20;34.40;99.90
16976;DHT22;8604;48.148;-1.786;2023-08-21T09:35:51;34.70;99.90
16976;DHT22;8604;48.148;-1.786;2023-08-21T09:38:20;34.70;99.90
16976;DHT22;8604;48.148;-1.786;2023-08-21T09:40:54;34.80;99.90
16976;DHT22;8604;48.148;-1.786;2023-08-21T09:43:24;35.00;99.90
16976;DHT22;8604;48.148;-1.786;2023-08-21T09:45:54;35.20;99.90
16976;DHT22;8604;48.148;-1.786;2023-08-21T09:48:24;35.50;99.90
16976;DHT22;8604;48.148;-1.786;2023-08-21T09:50:54;36.00;99.90
16976;DHT22;8604;48.148;-1.786;2023-08-21T09:53:23;36.40;99.90
16976;DHT22;8604;48.148;-1.786;2023-08-21T09:56:01;36.80;99.90
16976;DHT22;8604;48.148;-1.786;2023-08-21T09:58:31;37.00;99.90
16976;DHT22;8604;48.148;-1.786;2023-08-21T10:00:59;37.20;99.90
16976;DHT22;8604;48.148;-1.786;2023-08-21T10:03:30;37.10;99.90
16976;DHT22;8604;48.148;-1.786;2023-08-21T10:06:00;36.50;99.90
16976;DHT22;8604;48.148;-1.786;2023-08-21T10:08:30;36.40;99.90
16976;DHT22;8604;48.148;-1.786;2023-08-21T10:11:01;36.50;99.90
16976;DHT22;8604;48.148;-1.786;2023-08-21T10:13:31;36.40;99.90
16976;DHT22;8604;48.148;-1.786;2023-08-21T10:16:00;36.60;99.90
16976;DHT22;8604;48.148;-1.786;2023-08-21T10:18:31;36.90;99.90
16976;DHT22;8604;48.148;-1.786;2023-08-21T10:21:11;37.30;99.90
16976;DHT22;8604;48.148;-1.786;2023-08-21T10:23:40;37.50;99.90
16976;DHT22;8604;48.148;-1.786;2023-08-21T10:26:14;37.80;99.90
16976;DHT22;8604;48.148;-1.786;2023-08-21T10:28:47;37.80;99.90
16976;DHT22;8604;48.148;-1.786;2023-08-21T10:31:30;38.10;99.90
16976;DHT22;8604;48.148;-1.786;2023-08-21T10:34:01;38.20;99.90
16976;DHT22;8604;48.148;-1.786;2023-08-21T10:37:03;38.40;99.90
16976;DHT22;8604;48.148;-1.786;2023-08-21T10:39:33;38.30;99.90
16976;DHT22;8604;48.148;-1.786;2023-08-21T10:42:07;38.20;99.90
16976;DHT22;8604;48.148;-1.786;2023-08-21T10:44:47;38.30;99.90
16976;DHT22;8604;48.148;-1.786;2023-08-21T10:47:20;38.00;99.90
16976;DHT22;8604;48.148;-1.786;2023-08-21T10:49:51;38.10;99.90
16976;DHT22;8604;48.148;-1.786;2023-08-21T10:52:23;38.10;99.90
16976;DHT22;8604;48.148;-1.786;2023-08-21T10:54:53;38.20;99.90
16976;DHT22;8604;48.148;-1.786;2023-08-21T10:57:24;38.10;99.90
16976;DHT22;8604;48.148;-1.786;2023-08-21T10:59:57;38.30;99.90
16976;DHT22;8604;48.148;-1.786;2023-08-21T11:02:28;38.10;99.90
16976;DHT22;8604;48.148;-1.786;2023-08-21T11:04:58;37.80;99.90
16976;DHT22;8604;48.148;-1.786;2023-08-21T11:07:27;37.80;99.90
16976;DHT22;8604;48.148;-1.786;2023-08-21T11:09:56;37.70;99.90
16976;DHT22;8604;48.148;-1.786;2023-08-21T11:12:26;37.70;99.90
16976;DHT22;8604;48.148;-1.786;2023-08-21T11:14:54;37.60;99.90
16976;DHT22;8604;48.148;-1.786;2023-08-21T11:17:23;37.50;99.90
16976;DHT22;8604;48.148;-1.786;2023-08-21T11:19:51;37.40;99.90
16976;DHT22;8604;48.148;-1.786;2023-08-21T11:22:20;37.30;99.90
16976;DHT22;8604;48.148;-1.786;2023-08-21T11:24:49;37.40;99.90
16976;DHT22;8604;48.148;-1.786;2023-08-21T11:27:19;37.00;99.90
16976;DHT22;8604;48.148;-1.786;2023-08-21T11:29:52;37.20;99.90
16976;DHT22;8604;48.148;-1.786;2023-08-21T11:32:23;37.10;99.90
16976;DHT22;8604;48.148;-1.786;2023-08-21T11:34:53;37.40;99.90
16976;DHT22;8604;48.148;-1.786;2023-08-21T11:37:23;37.50;99.90
16976;DHT22;8604;48.148;-1.786;2023-08-21T11:39:52;37.50;99.90
16976;DHT22;8604;48.148;-1.786;2023-08-21T11:42:22;37.30;99.90
16976;DHT22;8604;48.148;-1.786;2023-08-21T11:44:59;37.10;99.90
16976;DHT22;8604;48.148;-1.786;2023-08-21T11:47:34;36.90;99.90
16976;DHT22;8604;48.148;-1.786;2023-08-21T11:50:05;36.90;99.90
16976;DHT22;8604;48.148;-1.786;2023-08-21T11:52:34;36.90;99.90
16976;DHT22;8604;48.148;-1.786;2023-08-21T11:55:08;37.00;99.90
16976;DHT22;8604;48.148;-1.786;2023-08-21T11:57:46;36.80;99.90
16976;DHT22;8604;48.148;-1.786;2023-08-21T12:00:17;36.70;99.90
16976;DHT22;8604;48.148;-1.786;2023-08-21T12:02:56;36.80;99.90
16976;DHT22;8604;48.148;-1.786;2023-08-21T12:05:25;36.40;99.90
16976;DHT22;8604;48.148;-1.786;2023-08-21T12:07:54;36.20;99.90
16976;DHT22;8604;48.148;-1.786;2023-08-21T12:10:24;36.10;99.90
16976;DHT22;8604;48.148;-1.786;2023-08-21T12:12:52;36.00;99.90
16976;DHT22;8604;48.148;-1.786;2023-08-21T12:15:22;36.00;99.90
16976;DHT22;8604;48.148;-1.786;2023-08-21T12:17:51;35.70;99.90
16976;DHT22;8604;48.148;-1.786;2023-08-21T12:20:20;35.30;99.90
16976;DHT22;8604;48.148;-1.786;2023-08-21T12:22:48;34.90;99.90
16976;DHT22;8604;48.148;-1.786;2023-08-21T12:25:17;34.80;99.90
16976;DHT22;8604;48.148;-1.786;2023-08-21T12:27:45;34.50;99.90
16976;DHT22;8604;48.148;-1.786;2023-08-21T12:30:28;34.30;99.90
16976;DHT22;8604;48.148;-1.786;2023-08-21T12:32:56;34.10;99.90
16976;DHT22;8604;48.148;-1.786;2023-08-21T12:35:42;33.90;99.90
16976;DHT22;8604;48.148;-1.786;2023-08-21T12:38:11;33.70;99.90
16976;DHT22;8604;48.148;-1.786;2023-08-21T12:40:40;33.80;99.90
16976;DHT22;8604;48.148;-1.786;2023-08-21T12:43:08;33.60;99.90
16976;DHT22;8604;48.148;-1.786;2023-08-21T12:45:38;33.50;99.90
16976;DHT22;8604;48.148;-1.786;2023-08-21T12:48:07;33.30;99.90
16976;DHT22;8604;48.148;-1.786;2023-08-21T12:50:35;33.40;99.90
16976;DHT22;8604;48.148;-1.786;2023-08-21T12:53:04;33.40;99.90
16976;DHT22;8604;48.148;-1.786;2023-08-21T12:55:32;33.30;99.90
16976;DHT22;8604;48.148;-1.786;2023-08-21T12:58:00;33.00;99.90
16976;DHT22;8604;48.148;-1.786;2023-08-21T13:00:29;32.90;99.90
16976;DHT22;8604;48.148;-1.786;2023-08-21T13:03:00;32.90;99.90
16976;DHT22;8604;48.148;-1.786;2023-08-21T13:05:30;32.70;99.90
16976;DHT22;8604;48.148;-1.786;2023-08-21T13:07:59;32.60;99.90
16976;DHT22;8604;48.148;-1.786;2023-08-21T13:10:27;32.60;99.90
16976;DHT22;8604;48.148;-1.786;2023-08-21T13:12:55;32.60;99.90
16976;DHT22;8604;48.148;-1.786;2023-08-21T13:15:24;32.40;99.90
16976;DHT22;8604;48.148;-1.786;2023-08-21T13:17:52;32.20;99.90
16976;DHT22;8604;48.148;-1.786;2023-08-21T13:20:22;32.20;99.90
16976;DHT22;8604;48.148;-1.786;2023-08-21T13:22:51;32.20;99.90
16976;DHT22;8604;48.148;-1.786;2023-08-21T13:25:22;32.20;99.90
16976;DHT22;8604;48.148;-1.786;2023-08-21T13:27:50;32.00;99.90
16976;DHT22;8604;48.148;-1.786;2023-08-21T13:30:19;31.80;99.90
16976;DHT22;8604;48.148;-1.786;2023-08-21T13:32:49;31.80;99.90
16976;DHT22;8604;48.148;-1.786;2023-08-21T13:35:17;31.60;99.90
16976;DHT22;8604;48.148;-1.786;2023-08-21T13:37:50;31.60;99.90
16976;DHT22;8604;48.148;-1.786;2023-08-21T13:40:19;31.50;99.90
16976;DHT22;8604;48.148;-1.786;2023-08-21T13:42:48;31.40;99.90
16976;DHT22;8604;48.148;-1.786;2023-08-21T13:45:17;31.30;99.90
16976;DHT22;8604;48.148;-1.786;2023-08-21T13:47:46;31.20;99.90
16976;DHT22;8604;48.148;-1.786;2023-08-21T13:50:17;31.00;99.90
16976;DHT22;8604;48.148;-1.786;2023-08-21T13:52:46;31.10;99.90
16976;DHT22;8604;48.148;-1.786;2023-08-21T13:55:16;31.00;99.90
16976;DHT22;8604;48.148;-1.786;2023-08-21T13:57:45;31.00;99.90
16976;DHT22;8604;48.148;-1.786;2023-08-21T14:00:14;30.90;99.90
16976;DHT22;8604;48.148;-1.786;2023-08-21T14:02:45;30.90;99.90
16976;DHT22;8604;48.148;-1.786;2023-08-21T14:05:13;30.90;99.90
16976;DHT22;8604;48.148;-1.786;2023-08-21T14:07:42;30.80;99.90
16976;DHT22;8604;48.148;-1.786;2023-08-21T14:10:10;30.80;99.90
16976;DHT22;8604;48.148;-1.786;2023-08-21T14:12:42;30.80;99.90
16976;DHT22;8604;48.148;-1.786;2023-08-21T14:15:10;30.80;99.90
16976;DHT22;8604;48.148;-1.786;2023-08-21T14:17:39;30.80;99.90
16976;DHT22;8604;48.148;-1.786;2023-08-21T14:20:09;30.80;99.90
16976;DHT22;8604;48.148;-1.786;2023-08-21T14:22:39;30.70;99.90
16976;DHT22;8604;48.148;-1.786;2023-08-21T14:25:08;30.60;99.90
16976;DHT22;8604;48.148;-1.786;2023-08-21T14:27:37;30.60;99.90
16976;DHT22;8604;48.148;-1.786;2023-08-21T14:30:08;30.50;99.90
16976;DHT22;8604;48.148;-1.786;2023-08-21T14:32:37;30.50;99.90
16976;DHT22;8604;48.148;-1.786;2023-08-21T14:35:06;30.50;99.90
16976;DHT22;8604;48.148;-1.786;2023-08-21T14:37:36;30.50;99.90
16976;DHT22;8604;48.148;-1.786;2023-08-21T14:40:06;30.50;99.90
16976;DHT22;8604;48.148;-1.786;2023-08-21T14:42:37;30.50;99.90
16976;DHT22;8604;48.148;-1.786;2023-08-21T14:45:08;30.50;99.90
16976;DHT22;8604;48.148;-1.786;2023-08-21T14:47:37;30.40;99.90
16976;DHT22;8604;48.148;-1.786;2023-08-21T14:50:06;30.30;99.90
16976;DHT22;8604;48.148;-1.786;2023-08-21T14:52:35;30.30;99.90
16976;DHT22;8604;48.148;-1.786;2023-08-21T14:55:04;30.20;99.90
16976;DHT22;8604;48.148;-1.786;2023-08-21T14:57:32;30.20;99.90
16976;DHT22;8604;48.148;-1.786;2023-08-21T15:00:01;30.10;99.90
16976;DHT22;8604;48.148;-1.786;2023-08-21T15:02:32;30.00;99.90
16976;DHT22;8604;48.148;-1.786;2023-08-21T15:05:02;30.10;99.90
16976;DHT22;8604;48.148;-1.786;2023-08-21T15:07:32;29.90;99.90
16976;DHT22;8604;48.148;-1.786;2023-08-21T15:10:01;29.90;99.90
16976;DHT22;8604;48.148;-1.786;2023-08-21T15:12:29;30.00;99.90
16976;DHT22;8604;48.148;-1.786;2023-08-21T15:14:57;29.90;99.90
16976;DHT22;8604;48.148;-1.786;2023-08-21T15:17:26;29.90;99.90
16976;DHT22;8604;48.148;-1.786;2023-08-21T15:19:56;29.90;99.90
16976;DHT22;8604;48.148;-1.786;2023-08-21T15:22:24;29.90;99.90
16976;DHT22;8604;48.148;-1.786;2023-08-21T15:24:52;29.80;99.90
16976;DHT22;8604;48.148;-1.786;2023-08-21T15:27:21;29.80;99.90
16976;DHT22;8604;48.148;-1.786;2023-08-21T15:29:49;29.80;99.90
16976;DHT22;8604;48.148;-1.786;2023-08-21T15:32:18;29.80;99.90
16976;DHT22;8604;48.148;-1.786;2023-08-21T15:34:46;29.60;99.90
16976;DHT22;8604;48.148;-1.786;2023-08-21T15:37:16;29.60;99.90
16976;DHT22;8604;48.148;-1.786;2023-08-21T15:39:44;29.60;99.90
16976;DHT22;8604;48.148;-1.786;2023-08-21T15:42:12;29.50;99.90
16976;DHT22;8604;48.148;-1.786;2023-08-21T15:44:41;29.40;99.90
16976;DHT22;8604;48.148;-1.786;2023-08-21T15:47:09;29.30;99.90
16976;DHT22;8604;48.148;-1.786;2023-08-21T15:49:40;29.40;99.90
16976;DHT22;8604;48.148;-1.786;2023-08-21T15:52:09;29.30;99.90